createdAt,value
2018-03-11T00:01:27.915Z,4.1
2018-03-11T00:18:15.800Z,4.0
2018-03-11T00:35:03.972Z,4.0
2018-03-11T00:51:51.763Z,4.0
2018-03-11T01:08:39.710Z,4.0
2018-03-11T01:25:27.582Z,4.0
2018-03-11T01:42:15.290Z,4.0
2018-03-11T01:59:03.129Z,4.0
2018-03-11T02:15:50.847Z,4.0
2018-03-11T02:32:38.382Z,3.9
2018-03-11T02:49:26.036Z,3.9
2018-03-11T03:06:13.285Z,3.9
2018-03-11T03:23:00.677Z,3.9
2018-03-11T03:39:47.943Z,3.9
2018-03-11T03:56:35.184Z,3.9
2018-03-11T04:13:22.460Z,3.9
2018-03-11T04:30:09.704Z,3.9
2018-03-11T04:46:56.824Z,3.9
2018-03-11T05:03:44.197Z,3.9
2018-03-11T05:20:31.288Z,3.9
2018-03-11T05:37:18.214Z,3.8
2018-03-11T05:54:05.132Z,3.8
2018-03-11T06:10:52.243Z,3.8
2018-03-11T06:27:39.356Z,3.8
2018-03-11T06:44:27.430Z,3.9
2018-03-11T07:01:13.766Z,3.9
2018-03-11T07:18:01.222Z,4.0
2018-03-11T07:34:48.337Z,4.0
2018-03-11T07:51:35.759Z,4.1
2018-03-11T08:08:23.758Z,4.2
2018-03-11T08:25:10.338Z,4.2
2018-03-11T08:41:57.878Z,4.3
2018-03-11T08:58:46.042Z,4.3
2018-03-11T09:15:34.184Z,4.3
2018-03-11T09:32:23.029Z,4.4
2018-03-11T09:49:10.873Z,4.5
2018-03-11T10:05:59.029Z,4.5
2018-03-11T10:22:48.036Z,4.5
2018-03-11T10:39:35.600Z,4.5
2018-03-11T10:56:24.309Z,4.5
2018-03-11T11:13:12.238Z,4.5
2018-03-11T11:30:00.348Z,4.5
2018-03-11T11:46:49.127Z,4.5
2018-03-11T12:03:37.547Z,4.5
2018-03-11T12:20:26.034Z,4.5
2018-03-11T12:37:14.272Z,4.5
2018-03-11T12:54:02.930Z,4.5
2018-03-11T13:10:51.985Z,4.5
2018-03-11T13:27:41.370Z,4.5
2018-03-11T13:44:30.309Z,4.5
2018-03-11T14:01:19.277Z,4.5
2018-03-11T14:18:08.869Z,4.5
2018-03-11T14:34:58.324Z,4.5
2018-03-11T14:51:48.033Z,4.5
2018-03-11T15:08:37.144Z,4.5
2018-03-11T15:25:25.095Z,4.5
2018-03-11T15:42:14.982Z,4.5
2018-03-11T15:59:03.566Z,4.5
2018-03-11T16:15:52.910Z,4.5
2018-03-11T16:32:41.866Z,4.4
2018-03-11T16:49:31.478Z,4.4
2018-03-11T17:06:20.142Z,4.4
2018-03-11T17:14:45.444Z,4.4
2018-03-11T17:23:10.505Z,4.4
2018-03-11T17:34:57.337Z,4.4
2018-03-11T17:51:45.659Z,4.3
2018-03-11T18:08:34.595Z,4.3
2018-03-11T18:25:22.668Z,4.3
2018-03-11T18:42:11.551Z,4.3
2018-03-11T18:59:01.671Z,4.3
2018-03-11T19:15:49.107Z,4.2
2018-03-11T19:32:36.812Z,4.2
2018-03-11T19:49:25.079Z,4.2
2018-03-11T20:06:14.477Z,4.2
2018-03-11T20:23:00.771Z,4.2
2018-03-11T20:39:49.367Z,4.2
2018-03-11T20:56:36.863Z,4.2
2018-03-11T21:13:25.075Z,4.2
2018-03-11T21:30:12.391Z,4.2
2018-03-11T21:47:00.672Z,4.2
2018-03-11T22:03:48.053Z,4.1
2018-03-11T22:20:36.002Z,4.1
2018-03-11T22:37:23.203Z,4.1
2018-03-11T22:54:11.488Z,4.1
2018-03-11T23:10:59.213Z,4.1
2018-03-11T23:27:46.419Z,4.1
2018-03-11T23:44:34.698Z,4.1
